sensor_id;sensor_type;location;lat;lon;timestamp;pressure;altitude;pressure_sealevel;temperature
74485;BMP280;62942;52.462;10.846;2023-12-28T00:00:43;100040;;;
74485;BMP280;62942;52.462;10.846;2023-12-28T00:01:53;100060;;;
74485;BMP280;62942;52.462;10.846;2023-12-28T00:02:53;100060;;;
74485;BMP280;62942;52.462;10.846;2023-12-28T00:03:53;100060;;;
74485;BMP280;62942;52.462;10.846;2023-12-28T00:05:03;100050;;;
74485;BMP280;62942;52.462;10.846;2023-12-28T00:06:03;100050;;;
74485;BMP280;62942;52.462;10.846;2023-12-28T00:07:13;100050;;;
74485;BMP280;62942;52.462;10.846;2023-12-28T00:08:13;100040;;;
74485;BMP280;62942;52.462;10.846;2023-12-28T00:09:13;100040;;;
74485;BMP280;62942;52.462;10.846;2023-12-28T00:10:23;100050;;;
74485;BMP280;62942;52.462;10.846;2023-12-28T00:11:33;100050;;;
74485;BMP280;62942;52.462;10.846;2023-12-28T00:12:43;100040;;;
74485;BMP280;62942;52.462;10.846;2023-12-28T00:13:53;100030;;;
74485;BMP280;62942;52.462;10.846;2023-12-28T00:15:03;100030;;;
74485;BMP280;62942;52.462;10.846;2023-12-28T00:16:13;100000;;;
74485;BMP280;62942;52.462;10.846;2023-12-28T00:17:23;100000;;;
74485;BMP280;62942;52.462;10.846;2023-12-28T00:18:33;99980;;;
74485;BMP280;62942;52.462;10.846;2023-12-28T00:19:43;100000;;;
74485;BMP280;62942;52.462;10.846;2023-12-28T00:20:53;100010;;;
74485;BMP280;62942;52.462;10.846;2023-12-28T00:22:03;100000;;;
74485;BMP280;62942;52.462;10.846;2023-12-28T00:23:03;100010;;;
74485;BMP280;62942;52.462;10.846;2023-12-28T00:24:14;100020;;;
74485;BMP280;62942;52.462;10.846;2023-12-28T00:25:23;100030;;;
74485;BMP280;62942;52.462;10.846;2023-12-28T00:26:33;100030;;;
74485;BMP280;62942;52.462;10.846;2023-12-28T00:27:43;100040;;;
74485;BMP280;62942;52.462;10.846;2023-12-28T00:28:53;100040;;;
74485;BMP280;62942;52.462;10.846;2023-12-28T00:29:53;100040;;;
74485;BMP280;62942;52.462;10.846;2023-12-28T00:30:53;100040;;;
74485;BMP280;62942;52.462;10.846;2023-12-28T00:32:03;100040;;;
74485;BMP280;62942;52.462;10.846;2023-12-28T00:33:13;100040;;;
74485;BMP280;62942;52.462;10.846;2023-12-28T00:34:23;100030;;;
74485;BMP280;62942;52.462;10.846;2023-12-28T00:35:23;100030;;;
74485;BMP280;62942;52.462;10.846;2023-12-28T00:36:23;100030;;;
74485;BMP280;62942;52.462;10.846;2023-12-28T00:37:23;100040;;;
74485;BMP280;62942;52.462;10.846;2023-12-28T00:38:33;100030;;;
74485;BMP280;62942;52.462;10.846;2023-12-28T00:39:33;100040;;;
74485;BMP280;62942;52.462;10.846;2023-12-28T00:40:33;100030;;;
74485;BMP280;62942;52.462;10.846;2023-12-28T00:41:33;100030;;;
74485;BMP280;62942;52.462;10.846;2023-12-28T00:42:43;100020;;;
74485;BMP280;62942;52.462;10.846;2023-12-28T00:43:53;100020;;;
74485;BMP280;62942;52.462;10.846;2023-12-28T00:45:03;100020;;;
74485;BMP280;62942;52.462;10.846;2023-12-28T00:46:13;100020;;;
74485;BMP280;62942;52.462;10.846;2023-12-28T00:47:13;100020;;;
74485;BMP280;62942;52.462;10.846;2023-12-28T00:48:23;100020;;;
74485;BMP280;62942;52.462;10.846;2023-12-28T00:49:23;100030;;;
74485;BMP280;62942;52.462;10.846;2023-12-28T00:50:23;100030;;;
74485;BMP280;62942;52.462;10.846;2023-12-28T00:51:33;100040;;;
74485;BMP280;62942;52.462;10.846;2023-12-28T00:52:33;100040;;;
74485;BMP280;62942;52.462;10.846;2023-12-28T00:53:43;100030;;;
74485;BMP280;62942;52.462;10.846;2023-12-28T00:54:43;100030;;;
74485;BMP280;62942;52.462;10.846;2023-12-28T00:55:43;100030;;;
74485;BMP280;62942;52.462;10.846;2023-12-28T00:56:53;100030;;;
74485;BMP280;62942;52.462;10.846;2023-12-28T00:58:03;100020;;;
74485;BMP280;62942;52.462;10.846;2023-12-28T00:59:13;100050;;;
74485;BMP280;62942;52.462;10.846;2023-12-28T01:00:23;100050;;;
74485;BMP280;62942;52.462;10.846;2023-12-28T01:01:23;100060;;;
74485;BMP280;62942;52.462;10.846;2023-12-28T01:02:23;100070;;;
74485;BMP280;62942;52.462;10.846;2023-12-28T01:03:23;100060;;;
74485;BMP280;62942;52.462;10.846;2023-12-28T01:04:33;100060;;;
74485;BMP280;62942;52.462;10.846;2023-12-28T01:05:33;100060;;;
74485;BMP280;62942;52.462;10.846;2023-12-28T01:06:33;100060;;;
74485;BMP280;62942;52.462;10.846;2023-12-28T01:07:43;100070;;;
74485;BMP280;62942;52.462;10.846;2023-12-28T01:08:43;100070;;;
74485;BMP280;62942;52.462;10.846;2023-12-28T01:09:53;100080;;;
74485;BMP280;62942;52.462;10.846;2023-12-28T01:11:03;100080;;;
74485;BMP280;62942;52.462;10.846;2023-12-28T01:12:13;100090;;;
74485;BMP280;62942;52.462;10.846;2023-12-28T01:13:13;100090;;;
74485;BMP280;62942;52.462;10.846;2023-12-28T01:14:23;100090;;;
74485;BMP280;62942;52.462;10.846;2023-12-28T01:15:33;100070;;;
74485;BMP280;62942;52.462;10.846;2023-12-28T01:16:33;100070;;;
74485;BMP280;62942;52.462;10.846;2023-12-28T01:17:43;100070;;;
74485;BMP280;62942;52.462;10.846;2023-12-28T01:18:53;100070;;;
74485;BMP280;62942;52.462;10.846;2023-12-28T01:19:53;100080;;;
74485;BMP280;62942;52.462;10.846;2023-12-28T01:20:53;100090;;;
74485;BMP280;62942;52.462;10.846;2023-12-28T01:22:03;100090;;;
74485;BMP280;62942;52.462;10.846;2023-12-28T01:23:13;100080;;;
74485;BMP280;62942;52.462;10.846;2023-12-28T01:24:13;100080;;;
74485;BMP280;62942;52.462;10.846;2023-12-28T01:25:23;100080;;;
74485;BMP280;62942;52.462;10.846;2023-12-28T01:26:23;100080;;;
74485;BMP280;62942;52.462;10.846;2023-12-28T01:27:33;100090;;;
74485;BMP280;62942;52.462;10.846;2023-12-28T01:28:33;100090;;;
74485;BMP280;62942;52.462;10.846;2023-12-28T01:29:33;100080;;;
74485;BMP280;62942;52.462;10.846;2023-12-28T01:30:43;100070;;;
74485;BMP280;62942;52.462;10.846;2023-12-28T01:31:43;100070;;;
74485;BMP280;62942;52.462;10.846;2023-12-28T01:32:43;100080;;;
74485;BMP280;62942;52.462;10.846;2023-12-28T01:33:53;100080;;;
74485;BMP280;62942;52.462;10.846;2023-12-28T01:35:03;100080;;;
74485;BMP280;62942;52.462;10.846;2023-12-28T01:36:13;100080;;;
74485;BMP280;62942;52.462;10.846;2023-12-28T01:37:03;100090;;;
74485;BMP280;62942;52.462;10.846;2023-12-28T01:38:13;100090;;;
74485;BMP280;62942;52.462;10.846;2023-12-28T01:39:23;100090;;;
74485;BMP280;62942;52.462;10.846;2023-12-28T01:40:33;100080;;;
74485;BMP280;62942;52.462;10.846;2023-12-28T01:41:43;100090;;;
74485;BMP280;62942;52.462;10.846;2023-12-28T01:42:53;100100;;;
74485;BMP280;62942;52.462;10.846;2023-12-28T01:44:03;100090;;;
74485;BMP280;62942;52.462;10.846;2023-12-28T01:45:13;100100;;;
74485;BMP280;62942;52.462;10.846;2023-12-28T01:46:13;100100;;;
74485;BMP280;62942;52.462;10.846;2023-12-28T01:47:23;100100;;;
74485;BMP280;62942;52.462;10.846;2023-12-28T01:48:33;100100;;;
74485;BMP280;62942;52.462;10.846;2023-12-28T01:49:43;100100;;;
74485;BMP280;62942;52.462;10.846;2023-12-28T01:50:43;100100;;;
74485;BMP280;62942;52.462;10.846;2023-12-28T01:51:53;100090;;;
74485;BMP280;62942;52.462;10.846;2023-12-28T01:52:54;100100;;;
74485;BMP280;62942;52.462;10.846;2023-12-28T01:54:03;100110;;;
74485;BMP280;62942;52.462;10.846;2023-12-28T01:55:13;100120;;;
74485;BMP280;62942;52.462;10.846;2023-12-28T01:56:23;100120;;;
74485;BMP280;62942;52.462;10.846;2023-12-28T01:57:23;100120;;;
74485;BMP280;62942;52.462;10.846;2023-12-28T01:58:23;100130;;;
74485;BMP280;62942;52.462;10.846;2023-12-28T01:59:33;100120;;;
74485;BMP280;62942;52.462;10.846;2023-12-28T02:00:43;100120;;;
74485;BMP280;62942;52.462;10.846;2023-12-28T02:01:43;100120;;;
74485;BMP280;62942;52.462;10.846;2023-12-28T02:02:53;100130;;;
74485;BMP280;62942;52.462;10.846;2023-12-28T02:03:53;100120;;;
74485;BMP280;62942;52.462;10.846;2023-12-28T02:04:53;100120;;;
74485;BMP280;62942;52.462;10.846;2023-12-28T02:06:03;100120;;;
74485;BMP280;62942;52.462;10.846;2023-12-28T02:07:03;100120;;;
74485;BMP280;62942;52.462;10.846;2023-12-28T02:08:13;100110;;;
74485;BMP280;62942;52.462;10.846;2023-12-28T02:09:13;100120;;;
74485;BMP280;62942;52.462;10.846;2023-12-28T02:10:13;100120;;;
74485;BMP280;62942;52.462;10.846;2023-12-28T02:11:23;100120;;;
74485;BMP280;62942;52.462;10.846;2023-12-28T02:12:33;100120;;;
74485;BMP280;62942;52.462;10.846;2023-12-28T02:13:33;100110;;;
74485;BMP280;62942;52.462;10.846;2023-12-28T02:14:33;100110;;;
74485;BMP280;62942;52.462;10.846;2023-12-28T02:15:43;100120;;;
74485;BMP280;62942;52.462;10.846;2023-12-28T02:16:44;100120;;;
74485;BMP280;62942;52.462;10.846;2023-12-28T02:17:43;100120;;;
74485;BMP280;62942;52.462;10.846;2023-12-28T02:18:53;100120;;;
74485;BMP280;62942;52.462;10.846;2023-12-28T02:19:54;100120;;;
74485;BMP280;62942;52.462;10.846;2023-12-28T02:20:53;100120;;;
74485;BMP280;62942;52.462;10.846;2023-12-28T02:22:03;100120;;;
74485;BMP280;62942;52.462;10.846;2023-12-28T02:23:13;100110;;;
74485;BMP280;62942;52.462;10.846;2023-12-28T02:24:23;100110;;;
74485;BMP280;62942;52.462;10.846;2023-12-28T02:25:23;100110;;;
74485;BMP280;62942;52.462;10.846;2023-12-28T02:26:33;100110;;;
74485;BMP280;62942;52.462;10.846;2023-12-28T02:27:43;100110;;;
74485;BMP280;62942;52.462;10.846;2023-12-28T02:28:43;100100;;;
74485;BMP280;62942;52.462;10.846;2023-12-28T02:29:53;100100;;;
74485;BMP280;62942;52.462;10.846;2023-12-28T02:31:03;100100;;;
74485;BMP280;62942;52.462;10.846;2023-12-28T02:32:13;100110;;;
74485;BMP280;62942;52.462;10.846;2023-12-28T02:33:24;100110;;;
74485;BMP280;62942;52.462;10.846;2023-12-28T02:34:25;100120;;;
74485;BMP280;62942;52.462;10.846;2023-12-28T02:35:23;100130;;;
74485;BMP280;62942;52.462;10.846;2023-12-28T02:36:33;100110;;;
74485;BMP280;62942;52.462;10.846;2023-12-28T02:37:33;100120;;;
74485;BMP280;62942;52.462;10.846;2023-12-28T02:38:43;100110;;;
74485;BMP280;62942;52.462;10.846;2023-12-28T02:39:53;100120;;;
74485;BMP280;62942;52.462;10.846;2023-12-28T02:41:03;100100;;;
74485;BMP280;62942;52.462;10.846;2023-12-28T02:42:03;100110;;;
74485;BMP280;62942;52.462;10.846;2023-12-28T02:43:13;100110;;;
74485;BMP280;62942;52.462;10.846;2023-12-28T02:44:13;100110;;;
74485;BMP280;62942;52.462;10.846;2023-12-28T02:45:23;100110;;;
74485;BMP280;62942;52.462;10.846;2023-12-28T02:46:23;100110;;;
74485;BMP280;62942;52.462;10.846;2023-12-28T02:47:33;100110;;;
74485;BMP280;62942;52.462;10.846;2023-12-28T02:48:43;100120;;;
74485;BMP280;62942;52.462;10.846;2023-12-28T02:49:53;100120;;;
74485;BMP280;62942;52.462;10.846;2023-12-28T02:51:03;100120;;;
74485;BMP280;62942;52.462;10.846;2023-12-28T02:52:03;100110;;;
74485;BMP280;62942;52.462;10.846;2023-12-28T02:53:13;100120;;;
74485;BMP280;62942;52.462;10.846;2023-12-28T02:54:23;100110;;;
74485;BMP280;62942;52.462;10.846;2023-12-28T02:55:23;100130;;;
74485;BMP280;62942;52.462;10.846;2023-12-28T02:56:33;100130;;;
74485;BMP280;62942;52.462;10.846;2023-12-28T02:57:33;100120;;;
74485;BMP280;62942;52.462;10.846;2023-12-28T02:58:43;100120;;;
74485;BMP280;62942;52.462;10.846;2023-12-28T02:59:53;100130;;;
74485;BMP280;62942;52.462;10.846;2023-12-28T03:01:03;100130;;;
74485;BMP280;62942;52.462;10.846;2023-12-28T03:02:13;100130;;;
74485;BMP280;62942;52.462;10.846;2023-12-28T03:03:23;100140;;;
74485;BMP280;62942;52.462;10.846;2023-12-28T03:04:23;100140;;;
74485;BMP280;62942;52.462;10.846;2023-12-28T03:05:33;100150;;;
74485;BMP280;62942;52.462;10.846;2023-12-28T03:06:43;100150;;;
74485;BMP280;62942;52.462;10.846;2023-12-28T03:07:43;100150;;;
74485;BMP280;62942;52.462;10.846;2023-12-28T03:08:53;100150;;;
74485;BMP280;62942;52.462;10.846;2023-12-28T03:10:03;100150;;;
74485;BMP280;62942;52.462;10.846;2023-12-28T03:11:14;100160;;;
74485;BMP280;62942;52.462;10.846;2023-12-28T03:12:23;100150;;;
74485;BMP280;62942;52.462;10.846;2023-12-28T03:13:34;100150;;;
74485;BMP280;62942;52.462;10.846;2023-12-28T03:14:33;100150;;;
74485;BMP280;62942;52.462;10.846;2023-12-28T03:15:43;100150;;;
74485;BMP280;62942;52.462;10.846;2023-12-28T03:16:53;100150;;;
74485;BMP280;62942;52.462;10.846;2023-12-28T03:18:03;100160;;;
74485;BMP280;62942;52.462;10.846;2023-12-28T03:19:03;100160;;;
74485;BMP280;62942;52.462;10.846;2023-12-28T03:20:13;100160;;;
74485;BMP280;62942;52.462;10.846;2023-12-28T03:21:23;100150;;;
74485;BMP280;62942;52.462;10.846;2023-12-28T03:22:23;100140;;;
74485;BMP280;62942;52.462;10.846;2023-12-28T03:23:33;100150;;;
74485;BMP280;62942;52.462;10.846;2023-12-28T03:24:33;100160;;;
74485;BMP280;62942;52.462;10.846;2023-12-28T03:25:43;100160;;;
74485;BMP280;62942;52.462;10.846;2023-12-28T03:26:53;100160;;;
74485;BMP280;62942;52.462;10.846;2023-12-28T03:28:03;100160;;;
74485;BMP280;62942;52.462;10.846;2023-12-28T03:29:03;100150;;;
74485;BMP280;62942;52.462;10.846;2023-12-28T03:30:13;100160;;;
74485;BMP280;62942;52.462;10.846;2023-12-28T03:31:23;100160;;;
74485;BMP280;62942;52.462;10.846;2023-12-28T03:32:23;100160;;;
74485;BMP280;62942;52.462;10.846;2023-12-28T03:33:33;100160;;;
74485;BMP280;62942;52.462;10.846;2023-12-28T03:34:33;100150;;;
74485;BMP280;62942;52.462;10.846;2023-12-28T03:35:43;100150;;;
74485;BMP280;62942;52.462;10.846;2023-12-28T03:36:43;100160;;;
74485;BMP280;62942;52.462;10.846;2023-12-28T03:37:53;100150;;;
74485;BMP280;62942;52.462;10.846;2023-12-28T03:39:03;100160;;;
74485;BMP280;62942;52.462;10.846;2023-12-28T03:40:03;100150;;;
74485;BMP280;62942;52.462;10.846;2023-12-28T03:41:16;100140;;;
74485;BMP280;62942;52.462;10.846;2023-12-28T03:42:13;100150;;;
74485;BMP280;62942;52.462;10.846;2023-12-28T03:43:23;100150;;;
74485;BMP280;62942;52.462;10.846;2023-12-28T03:44:23;100150;;;
74485;BMP280;62942;52.462;10.846;2023-12-28T03:45:33;100150;;;
74485;BMP280;62942;52.462;10.846;2023-12-28T03:46:33;100150;;;
74485;BMP280;62942;52.462;10.846;2023-12-28T03:47:43;100150;;;
74485;BMP280;62942;52.462;10.846;2023-12-28T03:48:53;100160;;;
74485;BMP280;62942;52.462;10.846;2023-12-28T03:50:03;100150;;;
74485;BMP280;62942;52.462;10.846;2023-12-28T03:51:03;100150;;;
74485;BMP280;62942;52.462;10.846;2023-12-28T03:52:13;100150;;;
74485;BMP280;62942;52.462;10.846;2023-12-28T03:53:23;100160;;;
74485;BMP280;62942;52.462;10.846;2023-12-28T03:54:33;100150;;;
74485;BMP280;62942;52.462;10.846;2023-12-28T03:55:43;100150;;;
74485;BMP280;62942;52.462;10.846;2023-12-28T03:56:53;100160;;;
74485;BMP280;62942;52.462;10.846;2023-12-28T03:58:03;100140;;;
74485;BMP280;62942;52.462;10.846;2023-12-28T03:59:03;100150;;;
74485;BMP280;62942;52.462;10.846;2023-12-28T04:00:13;100140;;;
74485;BMP280;62942;52.462;10.846;2023-12-28T04:01:13;100140;;;
74485;BMP280;62942;52.462;10.846;2023-12-28T04:02:23;100140;;;
74485;BMP280;62942;52.462;10.846;2023-12-28T04:03:33;100150;;;
74485;BMP280;62942;52.462;10.846;2023-12-28T04:04:33;100150;;;
74485;BMP280;62942;52.462;10.846;2023-12-28T04:05:43;100150;;;
74485;BMP280;62942;52.462;10.846;2023-12-28T04:06:53;100150;;;
74485;BMP280;62942;52.462;10.846;2023-12-28T04:08:03;100150;;;
74485;BMP280;62942;52.462;10.846;2023-12-28T04:09:03;100160;;;
74485;BMP280;62942;52.462;10.846;2023-12-28T04:10:13;100150;;;
74485;BMP280;62942;52.462;10.846;2023-12-28T04:11:13;100150;;;
74485;BMP280;62942;52.462;10.846;2023-12-28T04:12:23;100150;;;
74485;BMP280;62942;52.462;10.846;2023-12-28T04:13:33;100150;;;
74485;BMP280;62942;52.462;10.846;2023-12-28T04:14:43;100140;;;
74485;BMP280;62942;52.462;10.846;2023-12-28T04:15:53;100140;;;
74485;BMP280;62942;52.462;10.846;2023-12-28T04:17:03;100150;;;
74485;BMP280;62942;52.462;10.846;2023-12-28T04:18:13;100140;;;
74485;BMP280;62942;52.462;10.846;2023-12-28T04:19:23;100150;;;
74485;BMP280;62942;52.462;10.846;2023-12-28T04:20:33;100150;;;
74485;BMP280;62942;52.462;10.846;2023-12-28T04:21:33;100150;;;
74485;BMP280;62942;52.462;10.846;2023-12-28T04:22:33;100160;;;
74485;BMP280;62942;52.462;10.846;2023-12-28T04:23:43;100150;;;
74485;BMP280;62942;52.462;10.846;2023-12-28T04:24:53;100150;;;
74485;BMP280;62942;52.462;10.846;2023-12-28T04:25:53;100150;;;
74485;BMP280;62942;52.462;10.846;2023-12-28T04:26:53;100150;;;
74485;BMP280;62942;52.462;10.846;2023-12-28T04:28:03;100150;;;
74485;BMP280;62942;52.462;10.846;2023-12-28T04:29:03;100150;;;
74485;BMP280;62942;52.462;10.846;2023-12-28T04:30:13;100160;;;
74485;BMP280;62942;52.462;10.846;2023-12-28T04:31:23;100150;;;
74485;BMP280;62942;52.462;10.846;2023-12-28T04:32:23;100150;;;
74485;BMP280;62942;52.462;10.846;2023-12-28T04:33:33;100140;;;
74485;BMP280;62942;52.462;10.846;2023-12-28T04:34:43;100150;;;
74485;BMP280;62942;52.462;10.846;2023-12-28T04:35:53;100140;;;
74485;BMP280;62942;52.462;10.846;2023-12-28T04:37:03;100150;;;
74485;BMP280;62942;52.462;10.846;2023-12-28T04:38:03;100150;;;
74485;BMP280;62942;52.462;10.846;2023-12-28T04:39:03;100160;;;
74485;BMP280;62942;52.462;10.846;2023-12-28T04:40:13;100170;;;
74485;BMP280;62942;52.462;10.846;2023-12-28T04:41:23;100170;;;
74485;BMP280;62942;52.462;10.846;2023-12-28T04:42:23;100170;;;
74485;BMP280;62942;52.462;10.846;2023-12-28T04:43:33;100170;;;
74485;BMP280;62942;52.462;10.846;2023-12-28T04:44:43;100160;;;
74485;BMP280;62942;52.462;10.846;2023-12-28T04:45:53;100160;;;
74485;BMP280;62942;52.462;10.846;2023-12-28T04:47:03;100170;;;
74485;BMP280;62942;52.462;10.846;2023-12-28T04:48:13;100160;;;
74485;BMP280;62942;52.462;10.846;2023-12-28T04:49:23;100170;;;
74485;BMP280;62942;52.462;10.846;2023-12-28T04:50:23;100180;;;
74485;BMP280;62942;52.462;10.846;2023-12-28T04:51:33;100180;;;
74485;BMP280;62942;52.462;10.846;2023-12-28T04:52:43;100170;;;
74485;BMP280;62942;52.462;10.846;2023-12-28T04:53:43;100170;;;
74485;BMP280;62942;52.462;10.846;2023-12-28T04:54:53;100170;;;
74485;BMP280;62942;52.462;10.846;2023-12-28T04:55:54;100160;;;
74485;BMP280;62942;52.462;10.846;2023-12-28T04:57:03;100180;;;
74485;BMP280;62942;52.462;10.846;2023-12-28T04:58:13;100170;;;
74485;BMP280;62942;52.462;10.846;2023-12-28T04:59:23;100160;;;
74485;BMP280;62942;52.462;10.846;2023-12-28T05:00:23;100160;;;
74485;BMP280;62942;52.462;10.846;2023-12-28T05:01:33;100170;;;
74485;BMP280;62942;52.462;10.846;2023-12-28T05:02:33;100170;;;
74485;BMP280;62942;52.462;10.846;2023-12-28T05:03:43;100160;;;
74485;BMP280;62942;52.462;10.846;2023-12-28T05:04:53;100160;;;
74485;BMP280;62942;52.462;10.846;2023-12-28T05:05:53;100170;;;
74485;BMP280;62942;52.462;10.846;2023-12-28T05:07:03;100170;;;
74485;BMP280;62942;52.462;10.846;2023-12-28T05:08:03;100170;;;
74485;BMP280;62942;52.462;10.846;2023-12-28T05:09:13;100160;;;
74485;BMP280;62942;52.462;10.846;2023-12-28T05:10:22;100170;;;
74485;BMP280;62942;52.462;10.846;2023-12-28T05:11:33;100160;;;
74485;BMP280;62942;52.462;10.846;2023-12-28T05:12:33;100170;;;
74485;BMP280;62942;52.462;10.846;2023-12-28T05:13:33;100170;;;
74485;BMP280;62942;52.462;10.846;2023-12-28T05:14:43;100170;;;
74485;BMP280;62942;52.462;10.846;2023-12-28T05:15:53;100170;;;
74485;BMP280;62942;52.462;10.846;2023-12-28T05:17:03;100170;;;
74485;BMP280;62942;52.462;10.846;2023-12-28T05:18:03;100170;;;
74485;BMP280;62942;52.462;10.846;2023-12-28T05:19:13;100170;;;
74485;BMP280;62942;52.462;10.846;2023-12-28T05:20:13;100170;;;
74485;BMP280;62942;52.462;10.846;2023-12-28T05:21:22;100180;;;
74485;BMP280;62942;52.462;10.846;2023-12-28T05:22:22;100180;;;
74485;BMP280;62942;52.462;10.846;2023-12-28T05:23:33;100170;;;
74485;BMP280;62942;52.462;10.846;2023-12-28T05:24:42;100180;;;
74485;BMP280;62942;52.462;10.846;2023-12-28T05:25:43;100190;;;
74485;BMP280;62942;52.462;10.846;2023-12-28T05:26:52;100190;;;
74485;BMP280;62942;52.462;10.846;2023-12-28T05:28:03;100200;;;
74485;BMP280;62942;52.462;10.846;2023-12-28T05:29:03;100200;;;
74485;BMP280;62942;52.462;10.846;2023-12-28T05:30:13;100200;;;
74485;BMP280;62942;52.462;10.846;2023-12-28T05:31:13;100190;;;
74485;BMP280;62942;52.462;10.846;2023-12-28T05:32:22;100200;;;
74485;BMP280;62942;52.462;10.846;2023-12-28T05:33:23;100200;;;
74485;BMP280;62942;52.462;10.846;2023-12-28T05:34:32;100200;;;
74485;BMP280;62942;52.462;10.846;2023-12-28T05:35:33;100200;;;
74485;BMP280;62942;52.462;10.846;2023-12-28T05:36:42;100200;;;
74485;BMP280;62942;52.462;10.846;2023-12-28T05:37:52;100200;;;
74485;BMP280;62942;52.462;10.846;2023-12-28T05:38:52;100200;;;
74485;BMP280;62942;52.462;10.846;2023-12-28T05:40:03;100190;;;
74485;BMP280;62942;52.462;10.846;2023-12-28T05:41:03;100210;;;
74485;BMP280;62942;52.462;10.846;2023-12-28T05:42:13;100200;;;
74485;BMP280;62942;52.462;10.846;2023-12-28T05:43:13;100200;;;
74485;BMP280;62942;52.462;10.846;2023-12-28T05:44:22;100210;;;
74485;BMP280;62942;52.462;10.846;2023-12-28T05:45:32;100210;;;
74485;BMP280;62942;52.462;10.846;2023-12-28T05:46:43;100210;;;
74485;BMP280;62942;52.462;10.846;2023-12-28T05:47:52;100200;;;
74485;BMP280;62942;52.462;10.846;2023-12-28T05:49:02;100200;;;
74485;BMP280;62942;52.462;10.846;2023-12-28T05:50:03;100200;;;
74485;BMP280;62942;52.462;10.846;2023-12-28T05:51:03;100200;;;
74485;BMP280;62942;52.462;10.846;2023-12-28T05:52:12;100200;;;
74485;BMP280;62942;52.462;10.846;2023-12-28T05:53:22;100200;;;
74485;BMP280;62942;52.462;10.846;2023-12-28T05:54:22;100200;;;
74485;BMP280;62942;52.462;10.846;2023-12-28T05:55:32;100200;;;
74485;BMP280;62942;52.462;10.846;2023-12-28T05:56:42;100200;;;
74485;BMP280;62942;52.462;10.846;2023-12-28T05:57:52;100200;;;
74485;BMP280;62942;52.462;10.846;2023-12-28T05:58:52;100190;;;
74485;BMP280;62942;52.462;10.846;2023-12-28T06:00:03;100200;;;
74485;BMP280;62942;52.462;10.846;2023-12-28T06:01:12;100210;;;
74485;BMP280;62942;52.462;10.846;2023-12-28T06:02:12;100200;;;
74485;BMP280;62942;52.462;10.846;2023-12-28T06:03:22;100190;;;
74485;BMP280;62942;52.462;10.846;2023-12-28T06:04:32;100190;;;
74485;BMP280;62942;52.462;10.846;2023-12-28T06:05:42;100190;;;
74485;BMP280;62942;52.462;10.846;2023-12-28T06:06:52;100190;;;
74485;BMP280;62942;52.462;10.846;2023-12-28T06:07:52;100190;;;
74485;BMP280;62942;52.462;10.846;2023-12-28T06:09:02;100190;;;
74485;BMP280;62942;52.462;10.846;2023-12-28T06:10:12;100200;;;
74485;BMP280;62942;52.462;10.846;2023-12-28T06:11:22;100190;;;
74485;BMP280;62942;52.462;10.846;2023-12-28T06:12:32;100200;;;
74485;BMP280;62942;52.462;10.846;2023-12-28T06:13:32;100190;;;
74485;BMP280;62942;52.462;10.846;2023-12-28T06:14:42;100200;;;
74485;BMP280;62942;52.462;10.846;2023-12-28T06:15:52;100190;;;
74485;BMP280;62942;52.462;10.846;2023-12-28T06:16:52;100190;;;
74485;BMP280;62942;52.462;10.846;2023-12-28T06:18:03;100190;;;
74485;BMP280;62942;52.462;10.846;2023-12-28T06:19:02;100180;;;
74485;BMP280;62942;52.462;10.846;2023-12-28T06:20:12;100190;;;
74485;BMP280;62942;52.462;10.846;2023-12-28T06:21:22;100190;;;
74485;BMP280;62942;52.462;10.846;2023-12-28T06:22:22;100200;;;
74485;BMP280;62942;52.462;10.846;2023-12-28T06:23:32;100190;;;
74485;BMP280;62942;52.462;10.846;2023-12-28T06:24:42;100200;;;
74485;BMP280;62942;52.462;10.846;2023-12-28T06:25:53;100190;;;
74485;BMP280;62942;52.462;10.846;2023-12-28T06:27:03;100200;;;
74485;BMP280;62942;52.462;10.846;2023-12-28T06:28:03;100200;;;
74485;BMP280;62942;52.462;10.846;2023-12-28T06:29:12;100190;;;
74485;BMP280;62942;52.462;10.846;2023-12-28T06:30:22;100190;;;
74485;BMP280;62942;52.462;10.846;2023-12-28T06:31:32;100190;;;
74485;BMP280;62942;52.462;10.846;2023-12-28T06:32:42;100200;;;
74485;BMP280;62942;52.462;10.846;2023-12-28T06:33:52;100200;;;
74485;BMP280;62942;52.462;10.846;2023-12-28T06:35:03;100190;;;
74485;BMP280;62942;52.462;10.846;2023-12-28T06:36:12;100200;;;
74485;BMP280;62942;52.462;10.846;2023-12-28T06:37:22;100200;;;
74485;BMP280;62942;52.462;10.846;2023-12-28T06:38:32;100200;;;
74485;BMP280;62942;52.462;10.846;2023-12-28T06:39:33;100200;;;
74485;BMP280;62942;52.462;10.846;2023-12-28T06:40:42;100210;;;
74485;BMP280;62942;52.462;10.846;2023-12-28T06:41:42;100200;;;
74485;BMP280;62942;52.462;10.846;2023-12-28T06:42:52;100220;;;
74485;BMP280;62942;52.462;10.846;2023-12-28T06:44:02;100220;;;
74485;BMP280;62942;52.462;10.846;2023-12-28T06:45:03;100210;;;
74485;BMP280;62942;52.462;10.846;2023-12-28T06:46:12;100220;;;
74485;BMP280;62942;52.462;10.846;2023-12-28T06:47:12;100210;;;
74485;BMP280;62942;52.462;10.846;2023-12-28T06:48:22;100220;;;
74485;BMP280;62942;52.462;10.846;2023-12-28T06:49:32;100220;;;
74485;BMP280;62942;52.462;10.846;2023-12-28T06:50:42;100220;;;
74485;BMP280;62942;52.462;10.846;2023-12-28T06:51:52;100220;;;
74485;BMP280;62942;52.462;10.846;2023-12-28T06:53:02;100220;;;
74485;BMP280;62942;52.462;10.846;2023-12-28T06:54:13;100220;;;
74485;BMP280;62942;52.462;10.846;2023-12-28T06:55:22;100220;;;
74485;BMP280;62942;52.462;10.846;2023-12-28T06:56:32;100220;;;
74485;BMP280;62942;52.462;10.846;2023-12-28T06:57:32;100230;;;
74485;BMP280;62942;52.462;10.846;2023-12-28T06:58:42;100220;;;
74485;BMP280;62942;52.462;10.846;2023-12-28T06:59:42;100220;;;